Terminal Aerodrome Forecast
Issued by NWS Sioux Falls, SD

Home | Current Version | Previous Version | Graphics & Text | Print | Product List | Glossary On
Versions: 1 2 3 4 5 6 7 8 9 10 11 12 13 14 15 16 17 18 19 20 21 22 23 24 25 26 27 28 29 30 31 32 33 34
000
FTUS43 KFSD 180537
TAFSUX
TAF
KSUX 180537Z 1806/1906 11004KT P6SM SCT250
     FM180900 11005KT 6SM BR SCT010 SCT120
     FM181200 13008KT 3SM BR BKN006
     FM181600 15009KT P6SM SCT010 SCT120
     FM181800 15012KT P6SM SCT120
     FM190200 14009KT P6SM SKC=

USA.gov is the U.S. government's official web portal to all federal, state and local government web resources and services.